Time;durP1;ratioP1;P1;durP2;ratioP2;P2;SDS_P1;SDS_P2;PMS_P1;PMS_P2;Temp;Humidity;BMP_temperature;BMP_pressure;BME280_temperature;BME280_humidity;BME280_pressure;Samples;Min_cycle;Max_cycle;Signal;HPM_P1;HPM_P2
2021/11/22 00:02:03;;;;;;;;;;;5.10;99.90;;;;;;5030523;28;20422;-71
2021/11/22 00:04:28;;;;;;;;;;;5.10;99.90;;;;;;5025502;28;19921;-70
2021/11/22 00:06:54;;;;;;;;;;;5.10;99.90;;;;;;5029757;28;19913;-70
2021/11/22 00:09:19;;;;;;;;;;;5.00;99.90;;;;;;5028352;28;20020;-70
2021/11/22 00:11:45;;;;;;;;;;;5.00;99.90;;;;;;5031050;28;19966;-70
2021/11/22 00:14:10;;;;;;;;;;;4.90;99.90;;;;;;5029212;28;19921;-70
2021/11/22 00:16:36;;;;;;;;;;;4.90;99.90;;;;;;5028892;28;20292;-70
2021/11/22 00:19:01;;;;;;;;;;;4.90;99.90;;;;;;5028528;28;20514;-70
2021/11/22 00:21:27;;;;;;;;;;;4.90;99.90;;;;;;5030424;28;20332;-70
2021/11/22 00:23:53;;;;;;;;;;;4.80;99.90;;;;;;5029754;28;19917;-70
2021/11/22 00:26:18;;;;;;;;;;;4.80;99.90;;;;;;5011367;28;19917;-65
2021/11/22 00:28:44;;;;;;;;;;;4.80;99.90;;;;;;5030387;28;19916;-65
2021/11/22 00:31:09;;;;;;;;;;;4.80;99.90;;;;;;5029041;28;19996;-64
2021/11/22 00:33:36;;;;;;;;;;;4.80;99.90;;;;;;5027671;28;22479;-64
2021/11/22 00:36:02;;;;;;;;;;;4.80;99.90;;;;;;5029491;28;19917;-65
2021/11/22 00:38:27;;;;;;;;;;;4.80;99.90;;;;;;5029617;28;19913;-64
2021/11/22 00:40:53;;;;;;;;;;;4.70;99.90;;;;;;5029207;28;19920;-65
2021/11/22 00:43:19;;;;;;;;;;;4.70;99.90;;;;;;5012330;28;19988;-65
2021/11/22 00:45:48;;;;;;;;;;;4.70;99.90;;;;;;5028886;28;20565;-64
2021/11/22 00:48:13;;;;;;;;;;;4.70;99.90;;;;;;5028089;28;19921;-65
2021/11/22 00:50:38;;;;;;;;;;;4.70;99.90;;;;;;5028615;28;20293;-64
2021/11/22 00:53:04;;;;;;;;;;;4.70;99.90;;;;;;5028841;28;20291;-65
2021/11/22 00:55:30;;;;;;;;;;;4.60;99.90;;;;;;5027891;28;19925;-64
2021/11/22 00:57:55;;;;;;;;;;;4.60;99.90;;;;;;5027659;28;20380;-66
2021/11/22 01:00:21;;;;;;;;;;;4.60;99.90;;;;;;5026704;28;19918;-66
2021/11/22 01:02:47;;;;;;;;;;;4.50;99.90;;;;;;5024332;28;19964;-66
2021/11/22 01:05:12;;;;;;;;;;;4.50;99.90;;;;;;5021997;28;19921;-66
2021/11/22 01:07:38;;;;;;;;;;;4.50;99.90;;;;;;5026840;28;19917;-66
2021/11/22 01:10:04;;;;;;;;;;;4.50;99.90;;;;;;5029822;28;19909;-70
2021/11/22 01:12:29;;;;;;;;;;;4.50;99.90;;;;;;5027868;28;19921;-70
2021/11/22 01:14:56;;;;;;;;;;;4.50;99.90;;;;;;5027314;28;19959;-70
2021/11/22 01:17:22;;;;;;;;;;;4.50;99.90;;;;;;5028493;28;19917;-70
2021/11/22 01:19:51;;;;;;;;;;;4.50;99.90;;;;;;5026590;28;20047;-70
2021/11/22 01:22:17;;;;;;;;;;;4.60;99.90;;;;;;5027236;28;19922;-70
2021/11/22 01:24:42;;;;;;;;;;;4.60;99.90;;;;;;5028251;28;19921;-70
2021/11/22 01:27:08;;;;;;;;;;;4.60;99.90;;;;;;5026256;28;19919;-70
2021/11/22 01:29:33;;;;;;;;;;;4.70;99.90;;;;;;5025810;28;20075;-66
2021/11/22 01:31:59;;;;;;;;;;;4.70;99.90;;;;;;5008958;28;19951;-66
2021/11/22 01:34:26;;;;;;;;;;;4.80;99.90;;;;;;5028217;28;20280;-66
2021/11/22 01:36:51;;;;;;;;;;;4.80;99.90;;;;;;5027043;28;19971;-66
2021/11/22 01:39:17;;;;;;;;;;;4.80;99.90;;;;;;5027836;28;20438;-66
2021/11/22 01:41:42;;;;;;;;;;;4.80;99.90;;;;;;5028158;28;19925;-66
2021/11/22 01:44:08;;;;;;;;;;;4.80;99.90;;;;;;5022045;28;19913;-66
2021/11/22 01:46:33;;;;;;;;;;;4.80;99.90;;;;;;5027733;28;19914;-66
2021/11/22 01:49:00;;;;;;;;;;;4.90;99.90;;;;;;5028606;28;19917;-66
2021/11/22 01:51:25;;;;;;;;;;;4.90;99.90;;;;;;5024932;28;20261;-66
2021/11/22 01:53:51;;;;;;;;;;;4.90;99.90;;;;;;5028577;28;19917;-66
2021/11/22 01:56:16;;;;;;;;;;;4.90;99.90;;;;;;5024654;28;19913;-66
2021/11/22 01:58:42;;;;;;;;;;;4.90;99.90;;;;;;5026041;28;20339;-66
2021/11/22 02:01:07;;;;;;;;;;;5.00;99.90;;;;;;5027035;28;20016;-66
2021/11/22 02:03:33;;;;;;;;;;;5.00;99.90;;;;;;5027486;28;19913;-66
2021/11/22 02:05:58;;;;;;;;;;;5.00;99.90;;;;;;5027944;28;20075;-66
2021/11/22 02:08:24;;;;;;;;;;;5.00;99.90;;;;;;5027027;28;19952;-66
2021/11/22 02:10:50;;;;;;;;;;;5.00;99.90;;;;;;5027896;28;19909;-66
2021/11/22 02:13:15;;;;;;;;;;;5.00;99.90;;;;;;5024924;28;20395;-66
2021/11/22 02:15:41;;;;;;;;;;;5.00;99.90;;;;;;5027144;28;19909;-65
2021/11/22 02:18:07;;;;;;;;;;;5.00;99.90;;;;;;5024176;28;20329;-65
2021/11/22 02:20:33;;;;;;;;;;;5.00;99.90;;;;;;5025487;28;19913;-64
2021/11/22 02:23:00;;;;;;;;;;;5.00;99.90;;;;;;5026986;28;20364;-64
2021/11/22 02:25:27;;;;;;;;;;;5.00;99.90;;;;;;5026331;28;19976;-65
2021/11/22 02:27:53;;;;;;;;;;;4.90;99.90;;;;;;5028118;28;19917;-64
2021/11/22 02:30:20;;;;;;;;;;;4.90;99.90;;;;;;5026715;28;20368;-65
2021/11/22 02:32:46;;;;;;;;;;;4.90;99.90;;;;;;5027647;28;20016;-64
2021/11/22 02:35:19;;;;;;;;;;;4.90;99.90;;;;;;5025057;28;20001;-65
2021/11/22 02:37:44;;;;;;;;;;;4.90;99.90;;;;;;5028505;28;19917;-64
2021/11/22 02:40:10;;;;;;;;;;;4.90;99.90;;;;;;5026305;28;20446;-70
2021/11/22 02:42:40;;;;;;;;;;;4.90;99.90;;;;;;5027050;28;19975;-70
2021/11/22 02:45:06;;;;;;;;;;;4.90;99.90;;;;;;5010091;28;19913;-70
2021/11/22 02:47:31;;;;;;;;;;;4.90;99.90;;;;;;5027285;28;19913;-70
2021/11/22 02:49:57;;;;;;;;;;;4.90;99.90;;;;;;5007212;28;19913;-70
2021/11/22 02:52:22;;;;;;;;;;;4.90;99.90;;;;;;5025412;28;20400;-70
2021/11/22 02:54:48;;;;;;;;;;;4.90;99.90;;;;;;5028005;28;19916;-70
2021/11/22 02:57:13;;;;;;;;;;;4.90;99.90;;;;;;5027283;28;20327;-69
2021/11/22 02:59:40;;;;;;;;;;;4.80;99.90;;;;;;5024322;28;19964;-69
2021/11/22 03:02:06;;;;;;;;;;;4.80;99.90;;;;;;5024981;28;19917;-66
2021/11/22 03:04:32;;;;;;;;;;;4.80;99.90;;;;;;5025874;28;20380;-66
2021/11/22 03:06:58;;;;;;;;;;;4.80;99.90;;;;;;5027055;28;19913;-66
2021/11/22 03:09:24;;;;;;;;;;;4.70;99.90;;;;;;5025040;28;19924;-66
2021/11/22 03:11:49;;;;;;;;;;;4.70;99.90;;;;;;5027285;28;19913;-66
2021/11/22 03:14:15;;;;;;;;;;;4.70;99.90;;;;;;5025204;28;19921;-66
2021/11/22 03:16:40;;;;;;;;;;;4.70;99.90;;;;;;5026422;28;20284;-65
2021/11/22 03:19:06;;;;;;;;;;;4.60;99.90;;;;;;5026103;28;19913;-69
2021/11/22 03:21:32;;;;;;;;;;;4.60;99.90;;;;;;5028019;28;20042;-69
2021/11/22 03:23:57;;;;;;;;;;;4.60;99.90;;;;;;5024189;28;19925;-69
2021/11/22 03:26:23;;;;;;;;;;;4.60;99.90;;;;;;5026213;28;19921;-69
2021/11/22 03:28:48;;;;;;;;;;;4.60;99.90;;;;;;5023438;28;19924;-69
2021/11/22 03:31:14;;;;;;;;;;;4.50;99.90;;;;;;5012505;28;20470;-69
2021/11/22 03:33:41;;;;;;;;;;;4.50;99.90;;;;;;5029998;28;20031;-69
2021/11/22 03:36:07;;;;;;;;;;;4.50;99.90;;;;;;5030879;28;19916;-69
2021/11/22 03:38:32;;;;;;;;;;;4.50;99.90;;;;;;5029510;28;19913;-69
2021/11/22 03:41:00;;;;;;;;;;;4.50;99.90;;;;;;5029726;28;19920;-69
2021/11/22 03:46:09;;;;;;;;;;;4.50;99.90;;;;;;5030104;28;19982;-70
2021/11/22 03:48:36;;;;;;;;;;;4.50;99.90;;;;;;5029136;28;20550;-70
2021/11/22 03:51:02;;;;;;;;;;;4.50;99.90;;;;;;5029664;28;19936;-69
2021/11/22 03:53:27;;;;;;;;;;;4.50;99.90;;;;;;5028732;28;20276;-69
2021/11/22 03:55:53;;;;;;;;;;;4.50;99.90;;;;;;5031131;28;19963;-69
2021/11/22 03:58:18;;;;;;;;;;;4.50;99.90;;;;;;5026996;28;19924;-69
2021/11/22 04:00:44;;;;;;;;;;;4.50;99.90;;;;;;5024760;28;19917;-70
2021/11/22 04:03:09;;;;;;;;;;;4.50;99.90;;;;;;5029835;28;19943;-70
2021/11/22 04:05:35;;;;;;;;;;;4.50;99.90;;;;;;5028597;28;19936;-70
2021/11/22 04:08:00;;;;;;;;;;;4.50;99.90;;;;;;5029832;28;19917;-65
2021/11/22 04:10:25;;;;;;;;;;;4.60;99.90;;;;;;5029953;28;19917;-64
2021/11/22 04:12:51;;;;;;;;;;;4.60;99.90;;;;;;5027964;28;19921;-64
2021/11/22 04:15:17;;;;;;;;;;;4.60;99.90;;;;;;5013179;28;19909;-64
2021/11/22 04:17:42;;;;;;;;;;;4.60;99.90;;;;;;5012088;28;20012;-64
2021/11/22 04:20:08;;;;;;;;;;;4.60;99.90;;;;;;5030097;28;19957;-69
2021/11/22 04:22:33;;;;;;;;;;;4.60;99.90;;;;;;5028395;28;20344;-69
2021/11/22 04:24:59;;;;;;;;;;;4.60;99.90;;;;;;5030333;28;19909;-69
2021/11/22 04:27:24;;;;;;;;;;;4.60;99.90;;;;;;5027925;28;19917;-69
2021/11/22 04:29:51;;;;;;;;;;;4.70;99.90;;;;;;5030189;28;19915;-69
2021/11/22 04:32:17;;;;;;;;;;;4.70;99.90;;;;;;5028048;28;19917;-69
2021/11/22 04:34:42;;;;;;;;;;;4.70;99.90;;;;;;5011012;28;19971;-69
2021/11/22 04:37:08;;;;;;;;;;;4.70;99.90;;;;;;5028309;28;19917;-69
2021/11/22 04:39:34;;;;;;;;;;;4.70;99.90;;;;;;5030556;28;19916;-64
2021/11/22 04:41:59;;;;;;;;;;;4.70;99.90;;;;;;5028126;28;19925;-65
2021/11/22 04:44:25;;;;;;;;;;;4.70;99.90;;;;;;5027726;28;20579;-64
2021/11/22 04:46:50;;;;;;;;;;;4.70;99.90;;;;;;5029311;28;19913;-65
2021/11/22 04:49:15;;;;;;;;;;;4.60;99.90;;;;;;5028959;28;20390;-64
2021/11/22 04:51:41;;;;;;;;;;;4.60;99.90;;;;;;5011597;28;20662;-65
2021/11/22 04:54:06;;;;;;;;;;;4.70;99.90;;;;;;5029088;28;20004;-65
2021/11/22 04:56:32;;;;;;;;;;;4.70;99.90;;;;;;5027016;28;19913;-65
2021/11/22 04:58:57;;;;;;;;;;;4.70;99.90;;;;;;5028650;28;20005;-64
2021/11/22 05:01:23;;;;;;;;;;;4.70;99.90;;;;;;5024990;28;20977;-69
2021/11/22 05:03:49;;;;;;;;;;;4.70;99.90;;;;;;5027854;28;19917;-69
2021/11/22 05:06:15;;;;;;;;;;;4.70;99.90;;;;;;5024411;28;19913;-69
2021/11/22 05:08:40;;;;;;;;;;;4.70;99.90;;;;;;5024405;28;19923;-69
2021/11/22 05:11:05;;;;;;;;;;;4.70;99.90;;;;;;5019056;28;19917;-69
2021/11/22 05:13:31;;;;;;;;;;;4.70;99.90;;;;;;5019634;28;19921;-69
2021/11/22 05:15:57;;;;;;;;;;;4.70;99.90;;;;;;5021313;28;20399;-69
2021/11/22 05:18:22;;;;;;;;;;;4.70;99.90;;;;;;5023240;28;19917;-69
2021/11/22 05:20:47;;;;;;;;;;;4.70;99.90;;;;;;5004020;28;19932;-69
2021/11/22 05:23:13;;;;;;;;;;;4.70;99.90;;;;;;5022145;28;19944;-69
2021/11/22 05:25:39;;;;;;;;;;;4.60;99.90;;;;;;5024085;28;19971;-69
2021/11/22 05:28:05;;;;;;;;;;;4.60;99.90;;;;;;5024110;28;20418;-68
2021/11/22 05:30:30;;;;;;;;;;;4.60;99.90;;;;;;5011465;28;19932;-69
2021/11/22 05:32:57;;;;;;;;;;;4.60;99.90;;;;;;5029304;28;20372;-70
2021/11/22 05:35:23;;;;;;;;;;;4.50;99.90;;;;;;5024812;28;20399;-69
2021/11/22 05:37:49;;;;;;;;;;;4.50;99.90;;;;;;5028637;28;19913;-68
2021/11/22 05:40:14;;;;;;;;;;;4.50;99.90;;;;;;5026454;28;19913;-69
2021/11/22 05:42:40;;;;;;;;;;;4.50;99.90;;;;;;5029103;28;20373;-69
2021/11/22 05:45:06;;;;;;;;;;;4.50;99.90;;;;;;5025669;28;20011;-69
2021/11/22 05:47:31;;;;;;;;;;;4.50;99.90;;;;;;5028564;28;20485;-69
2021/11/22 05:50:04;;;;;;;;;;;4.50;99.90;;;;;;5025829;28;19917;-69
2021/11/22 05:52:29;;;;;;;;;;;4.50;99.90;;;;;;5026046;28;20226;-70
2021/11/22 05:54:56;;;;;;;;;;;4.50;99.90;;;;;;5023995;28;20390;-70
2021/11/22 05:57:22;;;;;;;;;;;4.50;99.90;;;;;;5025074;28;19921;-69
2021/11/22 05:59:47;;;;;;;;;;;4.40;99.90;;;;;;5029053;28;19963;-69
2021/11/22 06:02:13;;;;;;;;;;;4.40;99.90;;;;;;5023276;28;20376;-69
2021/11/22 06:04:38;;;;;;;;;;;4.40;99.90;;;;;;5027253;28;19953;-70
2021/11/22 06:07:04;;;;;;;;;;;4.40;99.90;;;;;;5011175;28;20268;-69
2021/11/22 06:09:30;;;;;;;;;;;4.40;99.90;;;;;;5009472;28;19920;-69
2021/11/22 06:11:56;;;;;;;;;;;4.40;99.90;;;;;;5025947;28;19917;-70
2021/11/22 06:14:21;;;;;;;;;;;4.40;99.90;;;;;;5027665;28;20384;-71
2021/11/22 06:16:47;;;;;;;;;;;4.40;99.90;;;;;;5023691;28;19919;-70
2021/11/22 06:19:13;;;;;;;;;;;4.40;99.90;;;;;;5026577;28;20435;-70
2021/11/22 06:21:38;;;;;;;;;;;4.40;99.90;;;;;;5019137;28;19915;-70
2021/11/22 06:24:05;;;;;;;;;;;4.40;99.90;;;;;;5027604;28;19953;-70
2021/11/22 06:26:31;;;;;;;;;;;4.40;99.90;;;;;;5027928;28;20008;-71
2021/11/22 06:28:56;;;;;;;;;;;4.30;99.90;;;;;;5027104;28;20423;-71
2021/11/22 06:31:22;;;;;;;;;;;4.30;99.90;;;;;;5027715;28;19952;-71
2021/11/22 06:33:47;;;;;;;;;;;4.20;99.90;;;;;;5028648;28;19931;-71
2021/11/22 06:36:13;;;;;;;;;;;4.20;99.90;;;;;;5026934;28;19932;-71
2021/11/22 06:38:38;;;;;;;;;;;4.10;99.90;;;;;;5028528;28;19917;-71
2021/11/22 06:41:04;;;;;;;;;;;4.20;99.90;;;;;;5028302;28;20380;-70
2021/11/22 06:43:30;;;;;;;;;;;4.10;99.90;;;;;;5027285;28;19917;-71
2021/11/22 06:45:55;;;;;;;;;;;4.10;99.90;;;;;;5011197;28;19909;-70
2021/11/22 06:48:21;;;;;;;;;;;4.10;99.90;;;;;;5010033;28;20024;-71
2021/11/22 06:50:46;;;;;;;;;;;4.00;99.90;;;;;;5027760;28;20388;-70
2021/11/22 06:53:11;;;;;;;;;;;4.00;99.90;;;;;;5027262;28;19951;-70
2021/11/22 06:55:37;;;;;;;;;;;4.00;99.90;;;;;;5029109;28;19909;-72
2021/11/22 06:58:02;;;;;;;;;;;3.90;99.90;;;;;;5026393;28;19990;-70
2021/11/22 07:00:28;;;;;;;;;;;3.90;99.90;;;;;;5019179;28;19918;-66
2021/11/22 07:02:54;;;;;;;;;;;3.90;99.90;;;;;;5020226;28;19975;-71
2021/11/22 07:05:20;;;;;;;;;;;4.80;99.90;;;;;;5020709;28;19917;-70
2021/11/22 07:07:46;;;;;;;;;;;5.10;99.90;;;;;;5028006;28;19913;-70
2021/11/22 07:10:11;;;;;;;;;;;4.90;99.90;;;;;;5026993;28;19917;-69
2021/11/22 07:12:37;;;;;;;;;;;4.70;99.90;;;;;;5024673;28;19920;-76
2021/11/22 07:15:03;;;;;;;;;;;4.50;99.90;;;;;;5025713;28;19917;-75
2021/11/22 07:17:28;;;;;;;;;;;4.30;99.90;;;;;;5025781;28;20401;-74
2021/11/22 07:19:54;;;;;;;;;;;4.20;99.90;;;;;;5030404;28;20003;-74
2021/11/22 07:22:19;;;;;;;;;;;4.10;99.90;;;;;;5030024;28;20383;-73
2021/11/22 07:24:46;;;;;;;;;;;4.10;99.90;;;;;;5028571;28;19963;-73
2021/11/22 07:27:11;;;;;;;;;;;4.00;99.90;;;;;;5024344;28;19963;-72
2021/11/22 07:29:37;;;;;;;;;;;4.00;99.90;;;;;;5029945;28;20390;-70
2021/11/22 07:32:03;;;;;;;;;;;4.00;99.90;;;;;;5027675;28;20509;-72
2021/11/22 07:34:29;;;;;;;;;;;4.00;99.90;;;;;;5028702;28;19968;-73
2021/11/22 07:36:54;;;;;;;;;;;4.00;99.90;;;;;;5029551;28;20387;-73
2021/11/22 07:39:20;;;;;;;;;;;4.00;99.90;;;;;;5028599;28;19920;-73
2021/11/22 07:41:45;;;;;;;;;;;3.90;99.90;;;;;;5027649;28;19917;-73
2021/11/22 07:44:11;;;;;;;;;;;3.90;99.90;;;;;;5028874;28;20288;-72
2021/11/22 07:46:36;;;;;;;;;;;3.90;99.90;;;;;;5028208;28;19917;-73
2021/11/22 07:49:02;;;;;;;;;;;3.90;99.90;;;;;;5012999;28;19913;-73
2021/11/22 07:51:28;;;;;;;;;;;3.80;99.90;;;;;;5029396;28;19955;-73
2021/11/22 07:53:53;;;;;;;;;;;3.80;99.90;;;;;;5027876;28;19921;-72
2021/11/22 07:56:19;;;;;;;;;;;3.80;99.90;;;;;;5010258;28;19917;-72
2021/11/22 07:58:44;;;;;;;;;;;3.80;99.90;;;;;;5028480;28;19913;-71
2021/11/22 08:01:10;;;;;;;;;;;3.70;99.90;;;;;;5009750;28;19924;-72
2021/11/22 08:03:35;;;;;;;;;;;3.70;99.90;;;;;;5027532;28;19913;-72
2021/11/22 08:06:02;;;;;;;;;;;3.60;99.90;;;;;;5012707;28;19932;-74
2021/11/22 08:08:30;;;;;;;;;;;3.60;99.90;;;;;;5025699;28;20040;-75
2021/11/22 08:11:06;;;;;;;;;;;3.60;99.90;;;;;;5025981;28;19979;-73
2021/11/22 08:13:33;;;;;;;;;;;3.70;99.90;;;;;;5028793;28;19921;-73
2021/11/22 08:16:03;;;;;;;;;;;3.70;99.90;;;;;;5026512;28;19913;-72
2021/11/22 08:18:29;;;;;;;;;;;3.70;99.90;;;;;;5028176;28;19923;-71
2021/11/22 08:20:55;;;;;;;;;;;3.70;99.90;;;;;;5029420;28;19913;-72
2021/11/22 08:23:20;;;;;;;;;;;3.70;99.90;;;;;;5028291;28;20245;-71
2021/11/22 08:25:46;;;;;;;;;;;3.70;99.90;;;;;;5008109;28;19913;-73
2021/11/22 08:28:11;;;;;;;;;;;3.70;99.90;;;;;;5025889;28;19970;-72
2021/11/22 08:30:37;;;;;;;;;;;3.80;99.90;;;;;;5016502;28;19913;-71
2021/11/22 08:33:03;;;;;;;;;;;3.80;99.90;;;;;;5027792;28;19971;-74
2021/11/22 08:35:31;;;;;;;;;;;3.80;99.90;;;;;;5027768;28;19913;-70
2021/11/22 08:37:57;;;;;;;;;;;3.80;99.90;;;;;;5028514;28;19924;-73
2021/11/22 08:40:22;;;;;;;;;;;3.80;99.90;;;;;;5026362;28;20308;-70
2021/11/22 08:42:49;;;;;;;;;;;3.80;99.90;;;;;;5026912;28;19928;-72
2021/11/22 08:45:15;;;;;;;;;;;3.90;99.90;;;;;;5026368;28;19961;-71
2021/11/22 08:47:40;;;;;;;;;;;3.90;99.90;;;;;;5027741;28;20377;-72
2021/11/22 08:50:06;;;;;;;;;;;4.00;99.90;;;;;;5025601;28;20328;-72
2021/11/22 08:52:32;;;;;;;;;;;4.00;99.90;;;;;;5027369;28;19960;-72
2021/11/22 08:54:57;;;;;;;;;;;4.00;99.90;;;;;;5028328;28;20335;-72
2021/11/22 08:57:23;;;;;;;;;;;4.00;99.90;;;;;;5024308;28;19921;-72
2021/11/22 08:59:49;;;;;;;;;;;4.00;99.90;;;;;;5027814;28;20014;-72
2021/11/22 09:02:15;;;;;;;;;;;4.10;99.90;;;;;;5025765;28;19913;-73
2021/11/22 09:04:40;;;;;;;;;;;4.10;99.90;;;;;;5027558;28;19921;-72
2021/11/22 09:07:08;;;;;;;;;;;4.20;99.90;;;;;;5027677;28;19919;-71
2021/11/22 09:09:33;;;;;;;;;;;4.20;99.90;;;;;;5027896;28;20469;-71
2021/11/22 09:11:59;;;;;;;;;;;4.20;99.90;;;;;;5026093;28;19925;-71
2021/11/22 09:14:24;;;;;;;;;;;4.20;99.90;;;;;;5023749;28;19928;-72
2021/11/22 09:16:50;;;;;;;;;;;4.30;99.90;;;;;;5027906;28;19918;-72
2021/11/22 09:19:15;;;;;;;;;;;4.30;99.90;;;;;;5027929;28;19913;-72
2021/11/22 09:21:41;;;;;;;;;;;4.40;99.90;;;;;;5027689;28;19918;-72
2021/11/22 09:24:07;;;;;;;;;;;4.30;99.90;;;;;;5026794;28;19913;-72
2021/11/22 09:26:33;;;;;;;;;;;4.30;99.90;;;;;;5025992;28;20414;-75
2021/11/22 09:28:58;;;;;;;;;;;4.40;99.90;;;;;;5027236;28;19913;-72
2021/11/22 09:31:24;;;;;;;;;;;4.40;99.90;;;;;;5026381;28;19917;-72
2021/11/22 09:33:52;;;;;;;;;;;4.50;99.90;;;;;;5023459;28;20019;-73
2021/11/22 09:36:17;;;;;;;;;;;4.60;99.90;;;;;;5026118;28;20871;-73
2021/11/22 09:38:43;;;;;;;;;;;4.60;99.90;;;;;;5010364;28;20038;-73
2021/11/22 09:41:09;;;;;;;;;;;4.70;99.90;;;;;;5024492;28;20384;-73
2021/11/22 09:43:34;;;;;;;;;;;4.70;99.90;;;;;;5028578;28;19924;-74
2021/11/22 09:46:00;;;;;;;;;;;4.70;99.90;;;;;;5026576;28;20000;-73
2021/11/22 09:48:25;;;;;;;;;;;4.70;99.90;;;;;;5028288;28;21225;-73
2021/11/22 09:50:51;;;;;;;;;;;4.70;99.90;;;;;;5010781;28;19967;-71
2021/11/22 09:53:16;;;;;;;;;;;4.70;99.90;;;;;;5025038;28;20518;-71
2021/11/22 09:55:42;;;;;;;;;;;4.70;99.90;;;;;;5023241;28;20372;-71
2021/11/22 09:58:08;;;;;;;;;;;4.80;99.90;;;;;;5026399;28;19913;-71
2021/11/22 10:00:34;;;;;;;;;;;4.80;99.90;;;;;;5006285;28;19995;-72
2021/11/22 10:02:59;;;;;;;;;;;4.80;99.90;;;;;;5026149;28;19913;-73
2021/11/22 10:05:29;;;;;;;;;;;4.90;99.90;;;;;;5025375;28;19917;-74
2021/11/22 10:08:01;;;;;;;;;;;4.90;99.90;;;;;;5026863;28;19917;-73
2021/11/22 10:10:31;;;;;;;;;;;4.90;99.90;;;;;;5024422;28;19918;-76
2021/11/22 10:13:00;;;;;;;;;;;5.10;99.90;;;;;;5024928;28;19925;-74
2021/11/22 10:15:30;;;;;;;;;;;5.20;99.90;;;;;;5025180;28;19956;-74
2021/11/22 10:17:55;;;;;;;;;;;5.30;99.90;;;;;;5024006;28;19913;-72
2021/11/22 10:20:21;;;;;;;;;;;5.30;99.90;;;;;;5020909;28;20249;-74
2021/11/22 10:22:47;;;;;;;;;;;5.30;99.90;;;;;;5026533;28;19910;-72
2021/11/22 10:25:24;;;;;;;;;;;5.30;99.90;;;;;;5027407;28;19916;-74
2021/11/22 10:27:50;;;;;;;;;;;5.30;99.90;;;;;;5025295;28;19913;-72
2021/11/22 10:30:20;;;;;;;;;;;5.30;99.90;;;;;;5022979;28;19932;-74
2021/11/22 10:32:45;;;;;;;;;;;5.40;99.90;;;;;;5026371;28;20376;-73
2021/11/22 10:35:15;;;;;;;;;;;5.30;99.90;;;;;;5009476;28;19916;-73
2021/11/22 10:37:56;;;;;;;;;;;5.30;99.90;;;;;;5023215;28;19917;-75
2021/11/22 10:40:21;;;;;;;;;;;5.30;99.90;;;;;;5024690;28;19924;-72
2021/11/22 10:42:47;;;;;;;;;;;5.40;99.90;;;;;;5008449;28;19917;-73
2021/11/22 10:45:29;;;;;;;;;;;5.40;99.90;;;;;;5026547;28;19917;-72
2021/11/22 10:47:55;;;;;;;;;;;5.50;99.90;;;;;;5025983;28;19917;-73
2021/11/22 10:50:24;;;;;;;;;;;5.50;99.90;;;;;;5025241;28;19936;-74
2021/11/22 10:52:49;;;;;;;;;;;5.50;99.90;;;;;;5024285;28;19921;-73
2021/11/22 10:55:15;;;;;;;;;;;5.60;99.90;;;;;;5025096;28;20357;-73
2021/11/22 10:57:46;;;;;;;;;;;5.60;99.90;;;;;;5026189;28;20280;-73
2021/11/22 11:00:17;;;;;;;;;;;5.60;99.80;;;;;;5022195;28;19991;-74
2021/11/22 11:02:43;;;;;;;;;;;5.60;99.90;;;;;;5022961;28;20264;-71
2021/11/22 11:05:09;;;;;;;;;;;5.60;99.90;;;;;;5019897;28;20455;-72
2021/11/22 11:07:34;;;;;;;;;;;5.60;99.90;;;;;;5017620;28;19917;-71
2021/11/22 11:10:00;;;;;;;;;;;5.60;99.40;;;;;;5017351;28;19976;-71
2021/11/22 11:12:26;;;;;;;;;;;5.60;99.90;;;;;;5017207;28;19921;-72
2021/11/22 11:14:52;;;;;;;;;;;5.60;99.90;;;;;;5017532;28;19925;-73
2021/11/22 11:17:19;;;;;;;;;;;5.70;99.90;;;;;;5016093;28;19917;-73
2021/11/22 11:19:46;;;;;;;;;;;5.70;99.90;;;;;;5017160;28;19979;-72
2021/11/22 11:22:11;;;;;;;;;;;5.70;99.70;;;;;;5014892;28;20442;-72
2021/11/22 11:24:37;;;;;;;;;;;5.70;99.80;;;;;;5019277;28;19921;-73
2021/11/22 11:27:03;;;;;;;;;;;5.70;99.90;;;;;;5017302;28;19924;-73
2021/11/22 11:29:28;;;;;;;;;;;5.80;99.60;;;;;;5017832;28;20384;-73
2021/11/22 11:31:54;;;;;;;;;;;5.90;99.80;;;;;;5021114;28;20296;-73
2021/11/22 11:34:20;;;;;;;;;;;5.90;99.10;;;;;;5018194;28;19982;-73
2021/11/22 11:36:59;;;;;;;;;;;5.80;99.00;;;;;;5016747;28;20495;-72
2021/11/22 11:39:43;;;;;;;;;;;5.80;99.10;;;;;;5020888;28;19921;-73
2021/11/22 11:42:27;;;;;;;;;;;5.80;99.20;;;;;;5015847;28;20348;-73
2021/11/22 11:45:17;;;;;;;;;;;5.80;98.70;;;;;;5018244;28;19925;-74
2021/11/22 11:48:04;;;;;;;;;;;5.90;98.60;;;;;;5017190;28;21394;-71
2021/11/22 11:50:32;;;;;;;;;;;5.90;98.60;;;;;;5017153;28;19924;-71
2021/11/22 11:53:03;;;;;;;;;;;5.90;99.10;;;;;;5007233;28;19921;-71
2021/11/22 11:55:28;;;;;;;;;;;5.90;99.30;;;;;;5019109;28;20031;-71
2021/11/22 11:58:12;;;;;;;;;;;5.90;99.20;;;;;;5020003;28;20301;-71
2021/11/22 12:00:48;;;;;;;;;;;5.90;99.20;;;;;;5020970;28;19921;-71
2021/11/22 12:03:14;;;;;;;;;;;5.90;98.90;;;;;;5020051;28;20411;-68
2021/11/22 12:05:44;;;;;;;;;;;5.90;99.30;;;;;;5019821;28;19921;-68
2021/11/22 12:08:25;;;;;;;;;;;6.30;99.90;;;;;;5021492;28;19967;-71
2021/11/22 12:10:51;;;;;;;;;;;7.00;99.90;;;;;;5021094;28;19921;-71
2021/11/22 12:13:17;;;;;;;;;;;7.00;98.50;;;;;;5019104;28;20037;-71
2021/11/22 12:15:45;;;;;;;;;;;6.80;98.20;;;;;;5019029;28;19918;-72
2021/11/22 12:18:23;;;;;;;;;;;6.60;97.90;;;;;;5018922;28;20380;-71
2021/11/22 12:20:50;;;;;;;;;;;6.40;98.30;;;;;;5019421;28;20286;-72
2021/11/22 12:23:18;;;;;;;;;;;6.30;98.40;;;;;;5020060;28;19921;-72
2021/11/22 12:25:46;;;;;;;;;;;6.20;98.40;;;;;;5022590;28;19917;-73
2021/11/22 12:28:14;;;;;;;;;;;6.20;98.80;;;;;;5018834;28;19928;-72
2021/11/22 12:30:41;;;;;;;;;;;6.10;98.10;;;;;;5018715;28;19924;-72
2021/11/22 12:33:25;;;;;;;;;;;6.10;98.40;;;;;;5016289;28;20023;-71
2021/11/22 12:35:55;;;;;;;;;;;6.10;98.70;;;;;;5019094;28;19914;-76
2021/11/22 12:38:22;;;;;;;;;;;6.10;98.40;;;;;;5022302;28;19922;-76
2021/11/22 12:40:48;;;;;;;;;;;6.10;98.20;;;;;;5018596;28;19978;-77
2021/11/22 12:43:14;;;;;;;;;;;6.10;98.30;;;;;;5019563;28;20039;-77
2021/11/22 12:45:58;;;;;;;;;;;6.10;98.40;;;;;;5021333;28;19936;-71
2021/11/22 12:48:25;;;;;;;;;;;6.10;98.50;;;;;;5016127;28;19921;-74
2021/11/22 12:50:54;;;;;;;;;;;6.10;98.20;;;;;;5021681;28;19914;-74
2021/11/22 12:53:20;;;;;;;;;;;6.10;98.20;;;;;;5019296;28;20379;-74
2021/11/22 12:55:46;;;;;;;;;;;6.10;98.00;;;;;;5045568;22;19922;-66
2021/11/22 12:58:13;;;;;;;;;;;6.10;97.60;;;;;;5047198;28;19917;-66
2021/11/22 13:00:40;;;;;;;;;;;6.00;97.70;;;;;;5036556;28;19919;-66
2021/11/22 13:03:08;;;;;;;;;;;6.00;97.80;;;;;;5046326;28;20011;-66
2021/11/22 13:05:39;;;;;;;;;;;6.00;97.90;;;;;;5037045;28;20040;-66
2021/11/22 13:08:05;;;;;;;;;;;6.10;98.20;;;;;;5033454;28;20375;-66
2021/11/22 13:10:35;;;;;;;;;;;6.10;98.10;;;;;;5031220;28;19924;-67
2021/11/22 13:13:10;;;;;;;;;;;6.10;98.20;;;;;;5031631;28;19926;-66
2021/11/22 13:15:53;;;;;;;;;;;6.10;98.20;;;;;;5030801;28;19917;-66
2021/11/22 13:18:19;;;;;;;;;;;6.00;98.00;;;;;;5031090;28;19947;-66
2021/11/22 13:20:45;;;;;;;;;;;6.00;98.00;;;;;;5029700;28;19927;-66
2021/11/22 13:23:11;;;;;;;;;;;6.00;98.00;;;;;;5031497;28;19916;-66
2021/11/22 13:25:38;;;;;;;;;;;6.00;98.00;;;;;;5030028;28;19920;-65
2021/11/22 13:28:17;;;;;;;;;;;5.90;98.00;;;;;;5031207;28;19913;-66
2021/11/22 13:30:43;;;;;;;;;;;5.90;98.10;;;;;;5031371;28;19912;-66
2021/11/22 13:33:09;;;;;;;;;;;6.00;97.90;;;;;;5032809;28;19916;-67
2021/11/22 13:35:35;;;;;;;;;;;6.00;97.90;;;;;;5029865;28;20347;-66
2021/11/22 13:38:11;;;;;;;;;;;6.00;98.10;;;;;;5031394;28;20011;-66
2021/11/22 13:40:41;;;;;;;;;;;6.00;98.20;;;;;;5033048;28;19923;-66
2021/11/22 13:43:09;;;;;;;;;;;6.00;98.30;;;;;;5032529;28;19931;-66
2021/11/22 13:45:35;;;;;;;;;;;5.90;98.30;;;;;;5032625;28;19921;-66
2021/11/22 13:48:01;;;;;;;;;;;5.90;98.30;;;;;;5032147;28;19910;-65
2021/11/22 13:50:38;;;;;;;;;;;5.90;98.40;;;;;;5033649;28;20421;-65
2021/11/22 13:53:03;;;;;;;;;;;5.90;98.50;;;;;;5030986;28;20416;-65
2021/11/22 13:55:32;;;;;;;;;;;5.90;98.70;;;;;;5036266;28;19990;-66
2021/11/22 13:58:07;;;;;;;;;;;5.90;98.50;;;;;;5030852;28;20035;-65
2021/11/22 14:00:33;;;;;;;;;;;5.90;98.50;;;;;;5046482;28;19978;-67
2021/11/22 14:02:59;;;;;;;;;;;5.90;98.60;;;;;;5030179;28;19913;-66
2021/11/22 14:05:25;;;;;;;;;;;5.90;98.80;;;;;;5032190;28;19980;-66
2021/11/22 14:07:52;;;;;;;;;;;5.90;99.00;;;;;;5030589;28;20007;-66
2021/11/22 14:10:28;;;;;;;;;;;5.90;99.10;;;;;;5029710;28;20455;-66
2021/11/22 14:13:05;;;;;;;;;;;5.90;99.20;;;;;;5031796;28;20000;-66
2021/11/22 14:15:32;;;;;;;;;;;5.90;99.20;;;;;;5031066;28;20024;-66
2021/11/22 14:17:59;;;;;;;;;;;5.90;99.30;;;;;;5030524;28;19928;-66
2021/11/22 14:20:24;;;;;;;;;;;5.80;99.30;;;;;;5031282;28;20375;-66
2021/11/22 14:22:51;;;;;;;;;;;5.80;99.40;;;;;;5030540;28;19939;-66
2021/11/22 14:25:28;;;;;;;;;;;5.80;99.50;;;;;;5027741;28;19931;-66
2021/11/22 14:27:55;;;;;;;;;;;5.80;99.50;;;;;;5029651;28;19921;-66
2021/11/22 14:30:31;;;;;;;;;;;5.70;99.60;;;;;;5030934;28;19913;-66
2021/11/22 14:33:13;;;;;;;;;;;5.70;99.60;;;;;;5031882;28;19921;-66